LNI171 WIII-WARR
Flight info
| Callsign | LNI171 |
|---|---|
| Flight time | 1h 2m |
| Altitude | 35000 |
| Route | CA T3 BA |
| Aircraft | B738/M-SDE2E3FGHIRWXY/LB1 |
Departure
| Time | 2026-05-09 05:46 |
|---|---|
| Airport | Soekarno-Hatta International Airport (WIII) |
Arrival
| Time | 2026-05-09 06:48 |
|---|---|
| Airport | Juanda International Airport (WARR) |
| Time | Latitude | Longitude | Altitude | Speed | Heading |
|---|---|---|---|---|---|
| 2026-05-09 05:10 | -6.13182 | 106.65753 | 38 ft | 0 kts | 277° |
| 2026-05-09 05:29 | -6.13183 | 106.65756 | 38 ft | 3 kts | 278° |
| 2026-05-09 05:29 | -6.13188 | 106.65782 | 38 ft | 4 kts | 287° |
| 2026-05-09 05:30 | -6.13197 | 106.65808 | 36 ft | 4 kts | 283° |
| 2026-05-09 05:30 | -6.13201 | 106.65822 | 36 ft | 4 kts | 202° |
| 2026-05-09 05:30 | -6.13201 | 106.65823 | 36 ft | 1 kts | 187° |
| 2026-05-09 05:39 | -6.13203 | 106.65822 | 38 ft | 2 kts | 187° |
| 2026-05-09 05:40 | -6.13258 | 106.65815 | 38 ft | 12 kts | 187° |
| 2026-05-09 05:40 | -6.13349 | 106.65823 | 38 ft | 15 kts | 162° |
| 2026-05-09 05:40 | -6.13435 | 106.65887 | 38 ft | 14 kts | 92° |
| 2026-05-09 05:40 | -6.13408 | 106.65975 | 38 ft | 0 kts | 68° |
| 2026-05-09 05:41 | -6.13402 | 106.65976 | 38 ft | 1 kts | 360° |
| 2026-05-09 05:41 | -6.13400 | 106.65966 | 37 ft | 3 kts | 270° |
| 2026-05-09 05:41 | -6.13427 | 106.65918 | 38 ft | 13 kts | 239° |
| 2026-05-09 05:41 | -6.13479 | 106.65801 | 37 ft | 22 kts | 247° |
| 2026-05-09 05:42 | -6.13535 | 106.65661 | 38 ft | 21 kts | 248° |
| 2026-05-09 05:42 | -6.13589 | 106.65523 | 37 ft | 21 kts | 248° |
| 2026-05-09 05:42 | -6.13648 | 106.65378 | 40 ft | 24 kts | 248° |
| 2026-05-09 05:42 | -6.13711 | 106.65215 | 40 ft | 26 kts | 249° |
| 2026-05-09 05:43 | -6.13781 | 106.65041 | 40 ft | 27 kts | 246° |
| 2026-05-09 05:43 | -6.13849 | 106.64869 | 39 ft | 23 kts | 248° |
| 2026-05-09 05:43 | -6.13908 | 106.64721 | 41 ft | 22 kts | 248° |
| 2026-05-09 05:43 | -6.13964 | 106.64577 | 41 ft | 22 kts | 248° |
| 2026-05-09 05:44 | -6.14021 | 106.64438 | 40 ft | 21 kts | 248° |
| 2026-05-09 05:44 | -6.14088 | 106.64310 | 41 ft | 21 kts | 221° |
| 2026-05-09 05:44 | -6.14107 | 106.64299 | 42 ft | 0 kts | 198° |
| 2026-05-09 05:45 | -6.14129 | 106.64294 | 43 ft | 5 kts | 185° |
| 2026-05-09 05:45 | -6.14171 | 106.64305 | 41 ft | 8 kts | 147° |
| 2026-05-09 05:45 | -6.14202 | 106.64360 | 43 ft | 11 kts | 106° |
| 2026-05-09 05:45 | -6.14207 | 106.64461 | 42 ft | 17 kts | 78° |
| 2026-05-09 05:46 | -6.14162 | 106.64581 | 40 ft | 29 kts | 69° |
| 2026-05-09 05:46 | -6.13976 | 106.65042 | 40 ft | 113 kts | 68° |
| 2026-05-09 05:46 | -6.13584 | 106.66005 | 54 ft | 181 kts | 67° |
| 2026-05-09 05:46 | -6.13080 | 106.67223 | 943 ft | 183 kts | 68° |
| 2026-05-09 05:47 | -6.12648 | 106.68335 | 2375 ft | 163 kts | 68° |
| 2026-05-09 05:47 | -6.12234 | 106.69420 | 3123 ft | 176 kts | 68° |
| 2026-05-09 05:47 | -6.11739 | 106.70673 | 3435 ft | 208 kts | 68° |
| 2026-05-09 05:47 | -6.11163 | 106.72120 | 3665 ft | 236 kts | 68° |
| 2026-05-09 05:48 | -6.10582 | 106.73709 | 4155 ft | 254 kts | 77° |
| 2026-05-09 05:48 | -6.10446 | 106.75535 | 4758 ft | 267 kts | 89° |
| 2026-05-09 05:48 | -6.10421 | 106.77411 | 5581 ft | 271 kts | 89° |
| 2026-05-09 05:48 | -6.10392 | 106.79316 | 6452 ft | 274 kts | 89° |
| 2026-05-09 05:49 | -6.10357 | 106.81240 | 7299 ft | 277 kts | 89° |
| 2026-05-09 05:49 | -6.10317 | 106.83186 | 8110 ft | 281 kts | 89° |
| 2026-05-09 05:49 | -6.10273 | 106.85158 | 8919 ft | 284 kts | 89° |
| 2026-05-09 05:49 | -6.10246 | 106.86314 | 9381 ft | 286 kts | 89° |
| 2026-05-09 05:50 | -6.10231 | 106.86973 | 9640 ft | 287 kts | 89° |
| 2026-05-09 05:50 | -6.10182 | 106.88992 | 10413 ft | 292 kts | 88° |
| 2026-05-09 05:50 | -6.10130 | 106.91099 | 10720 ft | 314 kts | 88° |
| 2026-05-09 05:50 | -6.10073 | 106.93376 | 10912 ft | 338 kts | 88° |
| 2026-05-09 05:51 | -6.10013 | 106.95801 | 11295 ft | 354 kts | 88° |
| 2026-05-09 05:51 | -6.09950 | 106.98294 | 11963 ft | 359 kts | 88° |
| 2026-05-09 05:51 | -6.10095 | 107.00798 | 12699 ft | 362 kts | 104° |
| 2026-05-09 05:51 | -6.11118 | 107.03101 | 13414 ft | 365 kts | 126° |
| 2026-05-09 05:52 | -6.12921 | 107.04886 | 14115 ft | 367 kts | 146° |
| 2026-05-09 05:52 | -6.15231 | 107.05986 | 14790 ft | 370 kts | 160° |
| 2026-05-09 05:52 | -6.17685 | 107.06828 | 15438 ft | 375 kts | 162° |
| 2026-05-09 05:52 | -6.20177 | 107.07645 | 16071 ft | 379 kts | 162° |
| 2026-05-09 05:53 | -6.22691 | 107.08472 | 16700 ft | 382 kts | 162° |
| 2026-05-09 05:53 | -6.25226 | 107.09319 | 17323 ft | 386 kts | 161° |
| 2026-05-09 05:53 | -6.27777 | 107.10185 | 17921 ft | 389 kts | 161° |
| 2026-05-09 05:53 | -6.30353 | 107.11068 | 18505 ft | 393 kts | 161° |
| 2026-05-09 05:54 | -6.32947 | 107.11962 | 19071 ft | 396 kts | 161° |
| 2026-05-09 05:54 | -6.35565 | 107.12864 | 19625 ft | 399 kts | 161° |
| 2026-05-09 05:54 | -6.38202 | 107.13773 | 20166 ft | 403 kts | 161° |
| 2026-05-09 05:54 | -6.40763 | 107.14926 | 20644 ft | 407 kts | 146° |
| 2026-05-09 05:55 | -6.42848 | 107.16851 | 21164 ft | 410 kts | 127° |
| 2026-05-09 05:55 | -6.44290 | 107.19326 | 21677 ft | 412 kts | 116° |
| 2026-05-09 05:55 | -6.45542 | 107.21930 | 22152 ft | 416 kts | 115° |
| 2026-05-09 05:55 | -6.46779 | 107.24566 | 22587 ft | 419 kts | 115° |
| 2026-05-09 05:56 | -6.48034 | 107.27225 | 23039 ft | 422 kts | 115° |
| 2026-05-09 05:56 | -6.49313 | 107.29898 | 23482 ft | 425 kts | 116° |
| 2026-05-09 05:56 | -6.50168 | 107.31668 | 23763 ft | 427 kts | 116° |
| 2026-05-09 05:56 | -6.51476 | 107.34357 | 24174 ft | 430 kts | 116° |
| 2026-05-09 05:57 | -6.53244 | 107.37980 | 24713 ft | 433 kts | 116° |
| 2026-05-09 05:57 | -6.54124 | 107.39783 | 24973 ft | 435 kts | 116° |
| 2026-05-09 05:57 | -6.55460 | 107.42521 | 25343 ft | 437 kts | 116° |
| 2026-05-09 05:57 | -6.56691 | 107.45324 | 25708 ft | 440 kts | 107° |
| 2026-05-09 05:58 | -6.57229 | 107.48361 | 26019 ft | 443 kts | 96° |
| 2026-05-09 05:58 | -6.57561 | 107.51465 | 25994 ft | 449 kts | 96° |
| 2026-05-09 05:58 | -6.57884 | 107.54584 | 25999 ft | 447 kts | 96° |
| 2026-05-09 05:58 | -6.58214 | 107.57672 | 25988 ft | 442 kts | 96° |
| 2026-05-09 05:59 | -6.58557 | 107.60736 | 25999 ft | 441 kts | 96° |
| 2026-05-09 05:59 | -6.58914 | 107.63805 | 26009 ft | 443 kts | 97° |
| 2026-05-09 05:59 | -6.59279 | 107.66887 | 26008 ft | 444 kts | 97° |
| 2026-05-09 05:59 | -6.59648 | 107.69976 | 26005 ft | 446 kts | 97° |
| 2026-05-09 06:00 | -6.60019 | 107.73074 | 26004 ft | 446 kts | 97° |
| 2026-05-09 06:00 | -6.60389 | 107.76173 | 26001 ft | 447 kts | 97° |
| 2026-05-09 06:00 | -6.60759 | 107.79273 | 26000 ft | 446 kts | 97° |
| 2026-05-09 06:00 | -6.61128 | 107.82371 | 25999 ft | 445 kts | 97° |
| 2026-05-09 06:01 | -6.61495 | 107.85457 | 25999 ft | 444 kts | 97° |
| 2026-05-09 06:01 | -6.61861 | 107.88539 | 25999 ft | 443 kts | 97° |
| 2026-05-09 06:01 | -6.62226 | 107.91612 | 26000 ft | 442 kts | 97° |
| 2026-05-09 06:01 | -6.62590 | 107.94680 | 26014 ft | 443 kts | 97° |
| 2026-05-09 06:02 | -6.62957 | 107.97778 | 26204 ft | 448 kts | 97° |
| 2026-05-09 06:02 | -6.63324 | 108.00891 | 26627 ft | 448 kts | 97° |
| 2026-05-09 06:02 | -6.63692 | 108.04003 | 27051 ft | 448 kts | 97° |
| 2026-05-09 06:02 | -6.64054 | 108.07077 | 27384 ft | 450 kts | 97° |
| 2026-05-09 06:03 | -6.64424 | 108.10211 | 27673 ft | 453 kts | 97° |
| 2026-05-09 06:03 | -6.64796 | 108.13368 | 27962 ft | 455 kts | 97° |
| 2026-05-09 06:03 | -6.65169 | 108.16539 | 28262 ft | 457 kts | 97° |
| 2026-05-09 06:03 | -6.65544 | 108.19719 | 28559 ft | 459 kts | 97° |
| 2026-05-09 06:04 | -6.65920 | 108.22915 | 28836 ft | 461 kts | 97° |
| 2026-05-09 06:04 | -6.66297 | 108.26122 | 29112 ft | 463 kts | 97° |
| 2026-05-09 06:04 | -6.66676 | 108.29345 | 29374 ft | 465 kts | 97° |
| 2026-05-09 06:04 | -6.67056 | 108.32578 | 29682 ft | 465 kts | 97° |
| 2026-05-09 06:05 | -6.67435 | 108.35806 | 30073 ft | 464 kts | 97° |
| 2026-05-09 06:05 | -6.67812 | 108.39020 | 30476 ft | 462 kts | 97° |
| 2026-05-09 06:05 | -6.68187 | 108.42224 | 30822 ft | 461 kts | 97° |
| 2026-05-09 06:05 | -6.68563 | 108.45427 | 31126 ft | 461 kts | 97° |
| 2026-05-09 06:06 | -6.68937 | 108.48627 | 31440 ft | 461 kts | 97° |
| 2026-05-09 06:06 | -6.69312 | 108.51828 | 31778 ft | 460 kts | 97° |
| 2026-05-09 06:06 | -6.69685 | 108.55016 | 32107 ft | 459 kts | 97° |
| 2026-05-09 06:06 | -6.70080 | 108.58202 | 32411 ft | 458 kts | 98° |
| 2026-05-09 06:07 | -6.70545 | 108.61370 | 32693 ft | 458 kts | 99° |
| 2026-05-09 06:07 | -6.71044 | 108.64531 | 32982 ft | 457 kts | 99° |
| 2026-05-09 06:07 | -6.71553 | 108.67686 | 33289 ft | 456 kts | 99° |
| 2026-05-09 06:07 | -6.72060 | 108.70838 | 33567 ft | 456 kts | 99° |
| 2026-05-09 06:08 | -6.72559 | 108.73987 | 33834 ft | 456 kts | 99° |
| 2026-05-09 06:08 | -6.73051 | 108.77131 | 34108 ft | 455 kts | 99° |
| 2026-05-09 06:08 | -6.73538 | 108.80272 | 34376 ft | 454 kts | 99° |
| 2026-05-09 06:08 | -6.74021 | 108.83409 | 34628 ft | 454 kts | 99° |
| 2026-05-09 06:09 | -6.74503 | 108.86547 | 34878 ft | 453 kts | 99° |
| 2026-05-09 06:09 | -6.74984 | 108.89687 | 35007 ft | 455 kts | 99° |
| 2026-05-09 06:09 | -6.75952 | 108.96009 | 34997 ft | 458 kts | 99° |
| 2026-05-09 06:10 | -6.76917 | 109.02307 | 34987 ft | 452 kts | 99° |
| 2026-05-09 06:10 | -6.77872 | 109.08547 | 35008 ft | 450 kts | 98° |
| 2026-05-09 06:11 | -6.78823 | 109.14764 | 35002 ft | 449 kts | 98° |
| 2026-05-09 06:11 | -6.79773 | 109.20980 | 35005 ft | 449 kts | 98° |
| 2026-05-09 06:12 | -6.80722 | 109.27192 | 35010 ft | 450 kts | 98° |
| 2026-05-09 06:12 | -6.81671 | 109.33413 | 35009 ft | 450 kts | 98° |
| 2026-05-09 06:13 | -6.82621 | 109.39649 | 35007 ft | 451 kts | 98° |
| 2026-05-09 06:13 | -6.83573 | 109.45900 | 35008 ft | 453 kts | 98° |
| 2026-05-09 06:14 | -6.84521 | 109.52125 | 35005 ft | 454 kts | 98° |
| 2026-05-09 06:14 | -6.85475 | 109.58404 | 35003 ft | 454 kts | 98° |
| 2026-05-09 06:15 | -6.86431 | 109.64695 | 34999 ft | 455 kts | 98° |
| 2026-05-09 06:15 | -6.87386 | 109.70990 | 35004 ft | 455 kts | 98° |
| 2026-05-09 06:16 | -6.88341 | 109.77288 | 34998 ft | 455 kts | 98° |
| 2026-05-09 06:16 | -6.89295 | 109.83586 | 34998 ft | 455 kts | 98° |
| 2026-05-09 06:17 | -6.90247 | 109.89880 | 34999 ft | 455 kts | 98° |
| 2026-05-09 06:17 | -6.91198 | 109.96166 | 34997 ft | 454 kts | 98° |
| 2026-05-09 06:18 | -6.92146 | 110.02444 | 35002 ft | 454 kts | 98° |
| 2026-05-09 06:18 | -6.93092 | 110.08712 | 35004 ft | 453 kts | 98° |
| 2026-05-09 06:19 | -6.94038 | 110.14984 | 35006 ft | 453 kts | 98° |
| 2026-05-09 06:19 | -6.94981 | 110.21246 | 34998 ft | 452 kts | 98° |
| 2026-05-09 06:20 | -6.95923 | 110.27507 | 35005 ft | 452 kts | 98° |
| 2026-05-09 06:20 | -6.96864 | 110.33764 | 35006 ft | 452 kts | 98° |
| 2026-05-09 06:21 | -6.97649 | 110.40029 | 35000 ft | 452 kts | 92° |
| 2026-05-09 06:21 | -6.97777 | 110.46359 | 35003 ft | 452 kts | 90° |
| 2026-05-09 06:22 | -6.97810 | 110.52700 | 34665 ft | 458 kts | 90° |
| 2026-05-09 06:22 | -6.97842 | 110.55909 | 34106 ft | 458 kts | 91° |
| 2026-05-09 06:22 | -6.97886 | 110.59114 | 33460 ft | 458 kts | 91° |
| 2026-05-09 06:23 | -6.97937 | 110.62305 | 33009 ft | 453 kts | 91° |
| 2026-05-09 06:23 | -6.97993 | 110.65461 | 32536 ft | 449 kts | 91° |
| 2026-05-09 06:23 | -6.98050 | 110.68587 | 32075 ft | 445 kts | 91° |
| 2026-05-09 06:23 | -6.98106 | 110.71686 | 31615 ft | 441 kts | 91° |
| 2026-05-09 06:24 | -6.98162 | 110.74764 | 31158 ft | 437 kts | 91° |
| 2026-05-09 06:24 | -6.98216 | 110.77806 | 30706 ft | 434 kts | 91° |
| 2026-05-09 06:24 | -6.98269 | 110.80833 | 30252 ft | 430 kts | 91° |
| 2026-05-09 06:24 | -6.98322 | 110.83831 | 29808 ft | 427 kts | 91° |
| 2026-05-09 06:25 | -6.98374 | 110.86803 | 29357 ft | 423 kts | 91° |
| 2026-05-09 06:25 | -6.98425 | 110.89757 | 28898 ft | 420 kts | 91° |
| 2026-05-09 06:25 | -6.98476 | 110.92684 | 28442 ft | 417 kts | 91° |
| 2026-05-09 06:25 | -6.98526 | 110.95586 | 27990 ft | 413 kts | 91° |
| 2026-05-09 06:26 | -6.98575 | 110.98466 | 27539 ft | 410 kts | 91° |
| 2026-05-09 06:26 | -6.98624 | 111.01325 | 27089 ft | 407 kts | 91° |
| 2026-05-09 06:26 | -6.98672 | 111.04164 | 26643 ft | 404 kts | 91° |
| 2026-05-09 06:26 | -6.98720 | 111.06980 | 26198 ft | 401 kts | 91° |
| 2026-05-09 06:27 | -6.98768 | 111.09780 | 25756 ft | 398 kts | 91° |
| 2026-05-09 06:27 | -6.98815 | 111.12556 | 25318 ft | 395 kts | 91° |
| 2026-05-09 06:27 | -6.98861 | 111.15308 | 25037 ft | 390 kts | 91° |
| 2026-05-09 06:27 | -6.98906 | 111.18025 | 24542 ft | 392 kts | 91° |
| 2026-05-09 06:28 | -6.98952 | 111.20727 | 24080 ft | 390 kts | 91° |
| 2026-05-09 06:28 | -6.98997 | 111.23445 | 23873 ft | 381 kts | 91° |
| 2026-05-09 06:28 | -6.99040 | 111.26064 | 23924 ft | 370 kts | 91° |
| 2026-05-09 06:28 | -6.99084 | 111.28725 | 23977 ft | 381 kts | 91° |
| 2026-05-09 06:29 | -6.99128 | 111.31394 | 24053 ft | 391 kts | 91° |
| 2026-05-09 06:29 | -6.99173 | 111.34117 | 23991 ft | 385 kts | 91° |
| 2026-05-09 06:29 | -6.99217 | 111.36794 | 23653 ft | 381 kts | 91° |
| 2026-05-09 06:29 | -6.99260 | 111.39461 | 23187 ft | 380 kts | 91° |
| 2026-05-09 06:30 | -6.99353 | 111.42085 | 23034 ft | 370 kts | 98° |
| 2026-05-09 06:30 | -6.99916 | 111.44558 | 23009 ft | 356 kts | 105° |
| 2026-05-09 06:30 | -7.00595 | 111.46911 | 22898 ft | 346 kts | 107° |
| 2026-05-09 06:30 | -7.01281 | 111.49211 | 22626 ft | 341 kts | 107° |
| 2026-05-09 06:31 | -7.01973 | 111.51534 | 22101 ft | 345 kts | 107° |
| 2026-05-09 06:31 | -7.02657 | 111.53851 | 21269 ft | 357 kts | 106° |
| 2026-05-09 06:31 | -7.03366 | 111.56302 | 20460 ft | 369 kts | 106° |
| 2026-05-09 06:31 | -7.04078 | 111.58796 | 19622 ft | 378 kts | 106° |
| 2026-05-09 06:32 | -7.04807 | 111.61362 | 18878 ft | 384 kts | 106° |
| 2026-05-09 06:32 | -7.05538 | 111.63947 | 18333 ft | 383 kts | 106° |
| 2026-05-09 06:32 | -7.06264 | 111.66516 | 17834 ft | 381 kts | 106° |
| 2026-05-09 06:33 | -7.07702 | 111.71608 | 16872 ft | 375 kts | 106° |
| 2026-05-09 06:33 | -7.08413 | 111.74129 | 16405 ft | 373 kts | 106° |
| 2026-05-09 06:33 | -7.09118 | 111.76627 | 15914 ft | 370 kts | 106° |
| 2026-05-09 06:34 | -7.10517 | 111.81586 | 14975 ft | 366 kts | 106° |
| 2026-05-09 06:34 | -7.11209 | 111.84039 | 14498 ft | 363 kts | 106° |
| 2026-05-09 06:34 | -7.11896 | 111.86476 | 14030 ft | 361 kts | 106° |
| 2026-05-09 06:34 | -7.12580 | 111.88902 | 13550 ft | 359 kts | 106° |
| 2026-05-09 06:35 | -7.13259 | 111.91310 | 13073 ft | 357 kts | 106° |
| 2026-05-09 06:35 | -7.13933 | 111.93705 | 12604 ft | 355 kts | 106° |
| 2026-05-09 06:35 | -7.14602 | 111.96078 | 12281 ft | 348 kts | 106° |
| 2026-05-09 06:35 | -7.15247 | 111.98367 | 12317 ft | 331 kts | 106° |
| 2026-05-09 06:36 | -7.15903 | 112.00563 | 12247 ft | 326 kts | 109° |
| 2026-05-09 06:36 | -7.16746 | 112.02708 | 11787 ft | 329 kts | 113° |
| 2026-05-09 06:36 | -7.17670 | 112.04811 | 11414 ft | 327 kts | 114° |
| 2026-05-09 06:36 | -7.18599 | 112.06890 | 11072 ft | 324 kts | 114° |
| 2026-05-09 06:37 | -7.19514 | 112.08951 | 10724 ft | 321 kts | 114° |
| 2026-05-09 06:37 | -7.20417 | 112.11015 | 10266 ft | 322 kts | 114° |
| 2026-05-09 06:37 | -7.21306 | 112.13065 | 10115 ft | 313 kts | 114° |
| 2026-05-09 06:37 | -7.22151 | 112.15028 | 10093 ft | 297 kts | 113° |
| 2026-05-09 06:38 | -7.22946 | 112.16881 | 10054 ft | 280 kts | 113° |
| 2026-05-09 06:38 | -7.23700 | 112.18642 | 9842 ft | 270 kts | 113° |
| 2026-05-09 06:38 | -7.24455 | 112.20407 | 9250 ft | 277 kts | 113° |
| 2026-05-09 06:38 | -7.25222 | 112.22201 | 8719 ft | 281 kts | 113° |
| 2026-05-09 06:39 | -7.25998 | 112.24017 | 8177 ft | 283 kts | 113° |
| 2026-05-09 06:39 | -7.26779 | 112.25846 | 7647 ft | 286 kts | 113° |
| 2026-05-09 06:39 | -7.27568 | 112.27694 | 7097 ft | 288 kts | 113° |
| 2026-05-09 06:39 | -7.28352 | 112.29529 | 6551 ft | 290 kts | 113° |
| 2026-05-09 06:40 | -7.29150 | 112.31397 | 6006 ft | 291 kts | 113° |
| 2026-05-09 06:40 | -7.29895 | 112.33320 | 5463 ft | 291 kts | 106° |
| 2026-05-09 06:40 | -7.30333 | 112.35241 | 5278 ft | 279 kts | 101° |
| 2026-05-09 06:40 | -7.30679 | 112.37118 | 5124 ft | 267 kts | 100° |
| 2026-05-09 06:41 | -7.31005 | 112.38924 | 4892 ft | 258 kts | 101° |
| 2026-05-09 06:41 | -7.31226 | 112.40115 | 4726 ft | 254 kts | 101° |
| 2026-05-09 06:41 | -7.31554 | 112.41843 | 4470 ft | 248 kts | 101° |
| 2026-05-09 06:41 | -7.31991 | 112.44081 | 4150 ft | 244 kts | 101° |
| 2026-05-09 06:42 | -7.32215 | 112.45217 | 3976 ft | 245 kts | 102° |
| 2026-05-09 06:42 | -7.32550 | 112.46898 | 3757 ft | 244 kts | 101° |
| 2026-05-09 06:42 | -7.32998 | 112.49132 | 3683 ft | 248 kts | 102° |
| 2026-05-09 06:42 | -7.33347 | 112.50825 | 3662 ft | 245 kts | 102° |
| 2026-05-09 06:43 | -7.33590 | 112.51954 | 3673 ft | 244 kts | 102° |
| 2026-05-09 06:43 | -7.34008 | 112.54170 | 3659 ft | 240 kts | 100° |
| 2026-05-09 06:43 | -7.34192 | 112.55264 | 3681 ft | 229 kts | 99° |
| 2026-05-09 06:43 | -7.34444 | 112.56805 | 3391 ft | 221 kts | 99° |
| 2026-05-09 06:44 | -7.34683 | 112.58296 | 3180 ft | 212 kts | 99° |
| 2026-05-09 06:44 | -7.34915 | 112.59733 | 2991 ft | 205 kts | 99° |
| 2026-05-09 06:44 | -7.35215 | 112.61592 | 2896 ft | 204 kts | 99° |
| 2026-05-09 06:44 | -7.35366 | 112.62539 | 2864 ft | 202 kts | 99° |
| 2026-05-09 06:45 | -7.35592 | 112.63921 | 2837 ft | 202 kts | 99° |
| 2026-05-09 06:45 | -7.35823 | 112.65344 | 2570 ft | 204 kts | 99° |
| 2026-05-09 06:45 | -7.36047 | 112.66732 | 2298 ft | 197 kts | 99° |
| 2026-05-09 06:45 | -7.36263 | 112.68072 | 2046 ft | 190 kts | 99° |
| 2026-05-09 06:46 | -7.36469 | 112.69343 | 1800 ft | 178 kts | 99° |
| 2026-05-09 06:46 | -7.36659 | 112.70528 | 1589 ft | 166 kts | 99° |
| 2026-05-09 06:46 | -7.36846 | 112.71672 | 1363 ft | 164 kts | 100° |
| 2026-05-09 06:46 | -7.37031 | 112.72810 | 1138 ft | 165 kts | 99° |
| 2026-05-09 06:47 | -7.37212 | 112.73930 | 914 ft | 156 kts | 99° |
| 2026-05-09 06:47 | -7.37379 | 112.74959 | 722 ft | 146 kts | 99° |
| 2026-05-09 06:47 | -7.37539 | 112.75954 | 521 ft | 142 kts | 99° |
| 2026-05-09 06:47 | -7.37704 | 112.76952 | 211 ft | 145 kts | 99° |
| 2026-05-09 06:48 | -7.37865 | 112.77929 | 43 ft | 138 kts | 99° |
| 2026-05-09 06:48 | -7.38008 | 112.78827 | 20 ft | 119 kts | 101° |
| 2026-05-09 06:48 | -7.38121 | 112.79543 | 16 ft | 61 kts | 98° |
| 2026-05-09 06:48 | -7.38180 | 112.79903 | 14 ft | 44 kts | 98° |
| 2026-05-09 06:49 | -7.38085 | 112.80034 | 17 ft | 6 kts | 5° |
| 2026-05-09 06:49 | -7.38082 | 112.80035 | 16 ft | 0 kts | 5° |
| 2026-05-09 06:50 | -7.38075 | 112.80035 | 17 ft | 4 kts | 0° |
| 2026-05-09 06:50 | -7.38033 | 112.80011 | 17 ft | 11 kts | 308° |
| 2026-05-09 06:50 | -7.38004 | 112.79914 | 17 ft | 17 kts | 281° |
| 2026-05-09 06:51 | -7.37978 | 112.79782 | 18 ft | 17 kts | 294° |
| 2026-05-09 06:51 | -7.37901 | 112.79785 | 18 ft | 16 kts | 10° |
| 2026-05-09 06:51 | -7.37765 | 112.79806 | 17 ft | 18 kts | 353° |
| 2026-05-09 06:51 | -7.37719 | 112.79713 | 18 ft | 16 kts | 276° |
| 2026-05-09 06:52 | -7.37706 | 112.79606 | 17 ft | 15 kts | 279° |
| 2026-05-09 06:52 | -7.37688 | 112.79506 | 19 ft | 14 kts | 279° |
| 2026-05-09 06:52 | -7.37669 | 112.79415 | 17 ft | 7 kts | 311° |
| 2026-05-09 06:52 | -7.37625 | 112.79404 | 17 ft | 7 kts | 4° |
| 2026-05-09 06:53 | -7.37585 | 112.79409 | 17 ft | 0 kts | 9° |
| 2026-05-09 06:53 | -7.37583 | 112.79410 | 17 ft | 1 kts | 9° |
| 2026-05-09 06:53 | -7.37578 | 112.79411 | 17 ft | 0 kts | 9° |